EHWO/WOE METAR and TAF weather

Enter ICAO airport designator
Station Type Date Time Source
EHWO METAR 2020/07/12 06:55 UTC NOAA

EHWO 120655Z AUTO 05005KT 340V080 9999 NCD 15/11 Q1028 BLU


Station Type Date Time Source
EHWO Decoded METAR 2020/07/12 06:55 UTC NOAA

Woensdrecht, Netherlands (EHWO) 51-27N 004-20E 17M
Jul 12, 2020 - 02:55 AM EDT / 2020.07.12 0655 UTC
Wind: from the NE (050 degrees) at 6 MPH (5 KT) (direction variable):0
Visibility: greater than 7 mile(s):0
Temperature: 59 F (15 C)
Dew Point: 51 F (11 C)
Relative Humidity: 76%
Pressure (altimeter): 30.36 in. Hg (1028 hPa)
ob: EHWO 120655Z AUTO 05005KT 340V080 9999 NCD 15/11 Q1028 BLU
cycle: 7

Station Type Date Time Source
EHWO TAF 2020/07/10 09:06 UTC NOAA

TAF EHWO 100817Z 1009/1021 32010KT 9999 SCT020 BKN030
TEMPO 1009/1012 SCT010 FEW015CB BKN018 PROB40
TEMPO 1010/1015 33010G20KT
BECMG 1018/1021 29004KT

Example: see airport list